Time;durP1;ratioP1;P1;durP2;ratioP2;P2;SDS_P1;SDS_P2;PMS_P1;PMS_P2;Temp;Humidity;BMP_temperature;BMP_pressure;BME280_temperature;BME280_humidity;BME280_pressure;Samples;Min_cycle;Max_cycle;Signal;HPM_P1;HPM_P2
2023/03/01 00:00:39;;;;;;;9.35;6.95;;;;;;;;;;4892707;29;20040;-77
2023/03/01 00:03:06;;;;;;;9.80;8.02;;;;;;;;;;4876525;29;20060;-76
2023/03/01 00:05:32;;;;;;;11.77;7.78;;;;;;;;;;4874206;29;20396;-76
2023/03/01 00:07:58;;;;;;;13.27;7.75;;;;;;;;;;4892021;29;20021;-77
2023/03/01 00:10:26;;;;;;;10.48;7.47;;;;;;;;;;4898965;29;20075;-77
2023/03/01 00:12:52;;;;;;;11.23;7.72;;;;;;;;;;4883291;29;20115;-76
2023/03/01 00:15:18;;;;;;;9.32;7.80;;;;;;;;;;4893578;29;20483;-78
2023/03/01 00:17:45;;;;;;;9.18;6.97;;;;;;;;;;4878399;29;20032;-76
2023/03/01 00:20:11;;;;;;;10.13;7.82;;;;;;;;;;4896271;29;20052;-78
2023/03/01 00:22:37;;;;;;;10.95;7.95;;;;;;;;;;4893529;29;20032;-76
2023/03/01 00:25:04;;;;;;;10.75;7.18;;;;;;;;;;4895508;29;20507;-77
2023/03/01 00:27:34;;;;;;;10.82;7.60;;;;;;;;;;4869721;29;20035;-77
2023/03/01 00:30:00;;;;;;;12.25;7.53;;;;;;;;;;4891743;29;20087;-77
2023/03/01 00:32:27;;;;;;;9.93;8.13;;;;;;;;;;4893252;29;20033;-76
2023/03/01 00:34:55;;;;;;;9.57;6.75;;;;;;;;;;4898658;29;20148;-77
2023/03/01 00:37:25;;;;;;;11.60;8.10;;;;;;;;;;4893164;29;20036;-76
2023/03/01 00:39:51;;;;;;;10.52;7.60;;;;;;;;;;4894148;29;20047;-77
2023/03/01 00:42:17;;;;;;;10.93;8.02;;;;;;;;;;4894466;29;20029;-76
2023/03/01 00:44:43;;;;;;;10.52;7.65;;;;;;;;;;4897820;29;20032;-76
2023/03/01 00:47:10;;;;;;;10.20;7.82;;;;;;;;;;4894936;29;20421;-77
2023/03/01 00:49:36;;;;;;;12.00;7.43;;;;;;;;;;4876466;29;20068;-77
2023/03/01 00:52:02;;;;;;;10.25;7.85;;;;;;;;;;4894835;29;20075;-76
2023/03/01 00:54:28;;;;;;;11.63;7.55;;;;;;;;;;4891695;29;20036;-77
2023/03/01 00:56:54;;;;;;;11.98;7.93;;;;;;;;;;4889117;29;20029;-76
2023/03/01 00:59:21;;;;;;;9.82;8.32;;;;;;;;;;4895100;29;20059;-77
2023/03/01 01:01:47;;;;;;;9.57;6.80;;;;;;;;;;4903619;29;20028;-76
2023/03/01 01:04:14;;;;;;;9.85;7.10;;;;;;;;;;4891636;29;20033;-77
2023/03/01 01:06:42;;;;;;;8.90;7.15;;;;;;;;;;4889375;29;20037;-77
2023/03/01 01:09:16;;;;;;;10.95;7.30;;;;;;;;;;4882396;29;20028;-77
2023/03/01 01:11:43;;;;;;;10.07;7.20;;;;;;;;;;4893387;29;20467;-76
2023/03/01 01:14:09;;;;;;;10.70;7.22;;;;;;;;;;4900204;29;20029;-76
2023/03/01 01:16:35;;;;;;;9.00;7.20;;;;;;;;;;4892853;29;20319;-76
2023/03/01 01:19:01;;;;;;;10.15;6.60;;;;;;;;;;4869394;29;20036;-77
2023/03/01 01:21:28;;;;;;;12.13;7.28;;;;;;;;;;4892170;29;20051;-77
2023/03/01 01:23:55;;;;;;;9.45;6.68;;;;;;;;;;4888290;29;20037;-76
2023/03/01 01:26:29;;;;;;;8.85;6.45;;;;;;;;;;4891414;29;20037;-77
2023/03/01 01:28:55;;;;;;;9.48;6.32;;;;;;;;;;4889530;29;20081;-78
2023/03/01 01:31:23;;;;;;;9.23;5.65;;;;;;;;;;4894118;29;20044;-76
2023/03/01 01:33:50;;;;;;;8.45;5.28;;;;;;;;;;4881265;29;20032;-77
2023/03/01 01:36:16;;;;;;;10.13;6.15;;;;;;;;;;4891189;29;20025;-76
2023/03/01 01:38:42;;;;;;;8.52;5.03;;;;;;;;;;4898540;29;20028;-76
2023/03/01 01:41:11;;;;;;;6.10;4.00;;;;;;;;;;4890292;29;20050;-78
2023/03/01 01:43:44;;;;;;;6.65;4.05;;;;;;;;;;4873590;29;20036;-76
2023/03/01 01:46:30;;;;;;;6.43;3.17;;;;;;;;;;4871533;29;20048;-77
2023/03/01 01:48:59;;;;;;;2.10;1.90;;;;;;;;;;4889377;29;20124;-77
2023/03/01 01:51:28;;;;;;;3.17;2.00;;;;;;;;;;4889636;29;20092;-76
2023/03/01 01:53:58;;;;;;;1.40;1.30;;;;;;;;;;4894559;29;20391;-76
2023/03/01 01:56:25;;;;;;;1.40;1.30;;;;;;;;;;4891017;29;20033;-76
2023/03/01 01:58:51;;;;;;;3.63;1.50;;;;;;;;;;4888911;29;20021;-77
2023/03/01 02:01:17;;;;;;;2.75;1.63;;;;;;;;;;4892525;29;20028;-77
2023/03/01 02:03:45;;;;;;;5.82;1.60;;;;;;;;;;4882153;29;20029;-77
2023/03/01 02:06:14;;;;;;;2.47;1.92;;;;;;;;;;4884462;29;20029;-77
2023/03/01 02:08:42;;;;;;;1.40;1.30;;;;;;;;;;4892098;29;20032;-78
2023/03/01 02:11:09;;;;;;;3.05;1.40;;;;;;;;;;4884700;29;20051;-76
2023/03/01 02:13:35;;;;;;;2.15;1.98;;;;;;;;;;4891162;29;20039;-76
2023/03/01 02:16:08;;;;;;;2.90;1.40;;;;;;;;;;4897454;29;20032;-77
2023/03/01 02:18:34;;;;;;;2.42;1.50;;;;;;;;;;4892379;29;20071;-77
2023/03/01 02:21:07;;;;;;;2.47;1.60;;;;;;;;;;4892277;29;20046;-77
2023/03/01 02:23:34;;;;;;;2.00;1.30;;;;;;;;;;4894635;29;20471;-77
2023/03/01 02:26:07;;;;;;;4.72;1.80;;;;;;;;;;4893128;29;20099;-78
2023/03/01 02:28:37;;;;;;;1.73;1.63;;;;;;;;;;4886919;29;20531;-76
2023/03/01 02:33:50;;;;;;;1.40;1.30;;;;;;;;;;4895166;29;20081;-77
2023/03/01 02:36:18;;;;;;;1.98;1.67;;;;;;;;;;4891954;29;20040;-77
2023/03/01 02:38:45;;;;;;;1.40;1.33;;;;;;;;;;4892231;29;20055;-77
2023/03/01 02:41:16;;;;;;;1.23;1.23;;;;;;;;;;4881848;29;20103;-78
2023/03/01 02:43:42;;;;;;;2.20;1.35;;;;;;;;;;4906709;29;20027;-77
2023/03/01 02:46:09;;;;;;;1.30;1.20;;;;;;;;;;4907391;29;20095;-77
2023/03/01 02:48:46;;;;;;;2.53;1.40;;;;;;;;;;4884545;29;20029;-77
2023/03/01 02:51:19;;;;;;;2.58;1.50;;;;;;;;;;4886007;29;20149;-78
2023/03/01 02:54:03;;;;;;;2.50;1.50;;;;;;;;;;4885100;29;20451;-77
2023/03/01 02:56:33;;;;;;;3.25;1.60;;;;;;;;;;4893101;29;20017;-77
2023/03/01 02:59:00;;;;;;;1.20;1.20;;;;;;;;;;4893514;29;20040;-77
2023/03/01 03:01:36;;;;;;;3.50;1.50;;;;;;;;;;4879665;29;20036;-77
2023/03/01 03:04:02;;;;;;;2.15;1.95;;;;;;;;;;4893949;29;20522;-77
2023/03/01 03:06:29;;;;;;;1.42;1.20;;;;;;;;;;4901506;29;20032;-77
2023/03/01 03:08:55;;;;;;;1.42;1.33;;;;;;;;;;4892661;29;20060;-76
2023/03/01 03:11:21;;;;;;;1.38;1.30;;;;;;;;;;4895356;29;20033;-77
2023/03/01 03:13:47;;;;;;;3.30;1.25;;;;;;;;;;4889251;29;20051;-76
2023/03/01 03:16:14;;;;;;;3.00;1.40;;;;;;;;;;4887509;29;20032;-77
2023/03/01 03:18:40;;;;;;;1.60;1.30;;;;;;;;;;4878211;29;20029;-77
2023/03/01 03:21:10;;;;;;;3.78;1.38;;;;;;;;;;4896710;29;20040;-78
2023/03/01 03:23:37;;;;;;;1.08;1.08;;;;;;;;;;4896829;29;20364;-76
2023/03/01 03:26:04;;;;;;;2.38;1.20;;;;;;;;;;4894045;29;20522;-77
2023/03/01 03:28:33;;;;;;;1.17;1.13;;;;;;;;;;4888570;29;20555;-76
2023/03/01 03:31:03;;;;;;;2.38;1.33;;;;;;;;;;4896485;29;20048;-77
2023/03/01 03:33:30;;;;;;;2.85;1.35;;;;;;;;;;4892788;29;20029;-77
2023/03/01 03:35:56;;;;;;;1.45;1.35;;;;;;;;;;4888404;29;20020;-76
2023/03/01 03:38:23;;;;;;;1.60;1.50;;;;;;;;;;4875577;29;20032;-78
2023/03/01 03:41:02;;;;;;;1.38;1.27;;;;;;;;;;4892147;29;20020;-77
2023/03/01 03:43:29;;;;;;;1.35;1.25;;;;;;;;;;4890469;29;20020;-77
2023/03/01 03:45:56;;;;;;;1.95;1.23;;;;;;;;;;4892076;29;20052;-77
2023/03/01 03:48:23;;;;;;;3.97;1.23;;;;;;;;;;4895820;29;20423;-77
2023/03/01 03:50:50;;;;;;;1.45;1.38;;;;;;;;;;4896169;29;20069;-77
2023/03/01 03:53:16;;;;;;;2.88;1.50;;;;;;;;;;4892927;29;20040;-77
2023/03/01 03:55:44;;;;;;;1.30;1.20;;;;;;;;;;4882326;29;20048;-78
2023/03/01 03:58:10;;;;;;;2.13;1.30;;;;;;;;;;4884479;29;20028;-76
2023/03/01 04:00:38;;;;;;;1.55;1.45;;;;;;;;;;4884368;29;20060;-77
2023/03/01 04:03:04;;;;;;;1.10;1.10;;;;;;;;;;4870424;29;20036;-77
2023/03/01 04:05:31;;;;;;;1.75;1.30;;;;;;;;;;4894768;29;20042;-76
2023/03/01 04:08:06;;;;;;;1.42;1.17;;;;;;;;;;4894972;29;20036;-76
2023/03/01 04:10:34;;;;;;;1.33;1.23;;;;;;;;;;4877408;29;20475;-76
2023/03/01 04:13:00;;;;;;;2.95;1.50;;;;;;;;;;4888670;29;20516;-77
2023/03/01 04:15:27;;;;;;;1.40;1.30;;;;;;;;;;4895775;29;20439;-77
2023/03/01 04:17:54;;;;;;;1.50;1.40;;;;;;;;;;4875833;29;20073;-76
2023/03/01 04:20:25;;;;;;;4.82;1.48;;;;;;;;;;4894892;29;20129;-76
2023/03/01 04:22:52;;;;;;;2.65;1.15;;;;;;;;;;4880114;29;20031;-76
2023/03/01 04:25:18;;;;;;;1.33;1.23;;;;;;;;;;4887555;29;20036;-76
2023/03/01 04:27:44;;;;;;;2.05;1.42;;;;;;;;;;4886786;29;20123;-77
2023/03/01 04:30:11;;;;;;;1.27;1.27;;;;;;;;;;4900647;29;20032;-76
2023/03/01 04:32:37;;;;;;;1.80;1.40;;;;;;;;;;4881909;29;20028;-77
2023/03/01 04:35:04;;;;;;;1.23;1.13;;;;;;;;;;4893011;29;20035;-77
2023/03/01 04:37:30;;;;;;;2.15;1.23;;;;;;;;;;4887874;29;20039;-77
2023/03/01 04:39:56;;;;;;;1.63;1.30;;;;;;;;;;4887104;29;20025;-77
2023/03/01 04:42:22;;;;;;;1.58;1.13;;;;;;;;;;4893570;29;20032;-77
2023/03/01 04:44:51;;;;;;;1.27;1.27;;;;;;;;;;4895159;29;20500;-78
2023/03/01 04:47:17;;;;;;;1.13;1.13;;;;;;;;;;4895365;29;20052;-76
2023/03/01 04:49:43;;;;;;;1.98;1.30;;;;;;;;;;4895721;29;20033;-77
2023/03/01 04:52:09;;;;;;;5.53;1.23;;;;;;;;;;4891346;29;20492;-77
2023/03/01 04:54:36;;;;;;;1.30;1.20;;;;;;;;;;4890991;29;20527;-78
2023/03/01 04:57:03;;;;;;;1.10;1.10;;;;;;;;;;4887200;29;20029;-78
2023/03/01 04:59:29;;;;;;;1.95;1.38;;;;;;;;;;4875118;29;20036;-77
2023/03/01 05:01:56;;;;;;;1.27;1.15;;;;;;;;;;4889737;29;20489;-76
2023/03/01 05:04:23;;;;;;;1.40;1.30;;;;;;;;;;4898484;29;20044;-76
2023/03/01 05:06:49;;;;;;;3.17;1.60;;;;;;;;;;4893493;29;20040;-77
2023/03/01 05:09:15;;;;;;;1.17;1.13;;;;;;;;;;4888556;29;20028;-76
2023/03/01 05:11:41;;;;;;;1.90;1.30;;;;;;;;;;4891325;29;20044;-76
2023/03/01 05:14:08;;;;;;;3.33;1.70;;;;;;;;;;4888401;29;20024;-76
2023/03/01 05:16:35;;;;;;;2.17;1.48;;;;;;;;;;4889946;29;20021;-76
2023/03/01 05:19:11;;;;;;;2.45;2.25;;;;;;;;;;4887982;29;20518;-77
2023/03/01 05:22:01;;;;;;;1.15;1.15;;;;;;;;;;4883230;29;20040;-77
2023/03/01 05:24:24;;;;;;;2.45;1.45;;;;;;;;;;4874817;29;20049;-77
2023/03/01 05:26:51;;;;;;;3.13;1.55;;;;;;;;;;4890647;29;20391;-76
2023/03/01 05:29:18;;;;;;;1.75;1.10;;;;;;;;;;4895480;29;20040;-78
2023/03/01 05:31:45;;;;;;;1.30;1.20;;;;;;;;;;4876555;29;20035;-77
2023/03/01 05:34:12;;;;;;;1.92;1.25;;;;;;;;;;4882618;29;20492;-77
2023/03/01 05:36:39;;;;;;;1.50;1.40;;;;;;;;;;4892210;29;20021;-77
2023/03/01 05:39:05;;;;;;;1.50;1.40;;;;;;;;;;4890774;29;20499;-77
2023/03/01 05:41:31;;;;;;;1.67;1.30;;;;;;;;;;4893146;29;20029;-77
2023/03/01 05:43:57;;;;;;;1.58;1.40;;;;;;;;;;4897211;29;20040;-76
2023/03/01 05:46:24;;;;;;;3.55;1.75;;;;;;;;;;4892853;29;20036;-77
2023/03/01 05:48:50;;;;;;;2.65;1.75;;;;;;;;;;4900012;29;20028;-77
2023/03/01 05:51:17;;;;;;;1.75;1.33;;;;;;;;;;4885266;29;20052;-76
2023/03/01 05:53:43;;;;;;;2.05;1.40;;;;;;;;;;4881330;29;20025;-76
2023/03/01 05:56:10;;;;;;;3.40;2.55;;;;;;;;;;4871109;29;20026;-78
2023/03/01 05:58:38;;;;;;;1.50;1.40;;;;;;;;;;4861763;29;20520;-77
2023/03/01 06:01:04;;;;;;;2.88;1.65;;;;;;;;;;4875320;29;21104;-77
2023/03/01 06:03:30;;;;;;;1.45;1.35;;;;;;;;;;4877991;29;20044;-76
2023/03/01 06:05:57;;;;;;;2.05;1.40;;;;;;;;;;4876389;29;20111;-77
2023/03/01 06:08:24;;;;;;;2.80;1.40;;;;;;;;;;4874246;29;20057;-76
2023/03/01 06:10:50;;;;;;;1.42;1.33;;;;;;;;;;4877093;29;20078;-76
2023/03/01 06:13:16;;;;;;;2.22;1.42;;;;;;;;;;4877511;29;20025;-76
2023/03/01 06:15:42;;;;;;;1.40;1.30;;;;;;;;;;4877467;29;20681;-77
2023/03/01 06:18:09;;;;;;;3.10;1.35;;;;;;;;;;4878035;29;20061;-78
2023/03/01 06:20:35;;;;;;;1.73;1.50;;;;;;;;;;4871403;29;20036;-76
2023/03/01 06:23:02;;;;;;;5.38;1.67;;;;;;;;;;4873109;29;20033;-77
2023/03/01 06:25:28;;;;;;;1.58;1.48;;;;;;;;;;4872360;29;20064;-77
2023/03/01 06:27:54;;;;;;;3.33;1.48;;;;;;;;;;4881150;29;20616;-77
2023/03/01 06:30:21;;;;;;;2.35;1.55;;;;;;;;;;4877398;29;20400;-76
2023/03/01 06:32:48;;;;;;;1.70;1.38;;;;;;;;;;4880451;29;20033;-76
2023/03/01 06:35:17;;;;;;;1.77;1.48;;;;;;;;;;4875905;29;20519;-76
2023/03/01 06:37:43;;;;;;;2.38;1.60;;;;;;;;;;4879784;29;20048;-78
2023/03/01 06:40:11;;;;;;;1.45;1.35;;;;;;;;;;4880228;29;20497;-76
2023/03/01 06:42:37;;;;;;;1.90;1.80;;;;;;;;;;4878370;29;20028;-77
2023/03/01 06:45:05;;;;;;;1.42;1.33;;;;;;;;;;4881458;29;20037;-76
2023/03/01 06:47:31;;;;;;;1.80;1.23;;;;;;;;;;4876125;29;20037;-77
2023/03/01 06:49:57;;;;;;;2.92;1.60;;;;;;;;;;4870959;29;20032;-77
2023/03/01 06:52:23;;;;;;;3.53;1.63;;;;;;;;;;4878578;29;20045;-77
2023/03/01 06:54:49;;;;;;;2.65;1.42;;;;;;;;;;4871578;29;20033;-77
2023/03/01 06:57:15;;;;;;;4.22;1.35;;;;;;;;;;4872943;29;20086;-76
2023/03/01 06:59:41;;;;;;;2.70;1.45;;;;;;;;;;4872528;29;20096;-77
2023/03/01 07:02:10;;;;;;;2.78;1.40;;;;;;;;;;4868937;29;20063;-77
2023/03/01 07:04:36;;;;;;;4.05;1.55;;;;;;;;;;4870593;29;20127;-76
2023/03/01 07:07:02;;;;;;;2.00;1.55;;;;;;;;;;4855571;29;20069;-76
2023/03/01 07:09:28;;;;;;;2.03;1.55;;;;;;;;;;4871535;29;20043;-76
2023/03/01 07:11:54;;;;;;;4.43;1.70;;;;;;;;;;4876668;29;20028;-77
2023/03/01 07:14:20;;;;;;;2.97;2.50;;;;;;;;;;4873814;29;20021;-76
2023/03/01 07:16:47;;;;;;;3.42;1.38;;;;;;;;;;4879110;29;20029;-77
2023/03/01 07:19:13;;;;;;;2.75;1.88;;;;;;;;;;4881651;29;20033;-75
2023/03/01 07:21:39;;;;;;;1.73;1.50;;;;;;;;;;4853010;29;20033;-77
2023/03/01 07:24:07;;;;;;;5.18;1.60;;;;;;;;;;4885925;29;20056;-77
2023/03/01 07:26:33;;;;;;;1.60;1.50;;;;;;;;;;4877402;29;20044;-76
2023/03/01 07:28:59;;;;;;;1.73;1.50;;;;;;;;;;4859724;29;20033;-77
2023/03/01 07:31:27;;;;;;;1.80;1.70;;;;;;;;;;4884227;29;20031;-77
2023/03/01 07:33:54;;;;;;;1.70;1.50;;;;;;;;;;4892067;29;20108;-79
2023/03/01 07:36:21;;;;;;;1.95;1.50;;;;;;;;;;4881008;29;20033;-78
2023/03/01 07:38:47;;;;;;;4.88;1.83;;;;;;;;;;4863513;29;20040;-77
2023/03/01 07:41:14;;;;;;;2.88;1.92;;;;;;;;;;4853733;29;20454;-76
2023/03/01 07:43:40;;;;;;;1.60;1.30;;;;;;;;;;4878322;29;20040;-77
2023/03/01 07:46:06;;;;;;;2.08;1.58;;;;;;;;;;4868796;29;20476;-76
2023/03/01 07:48:33;;;;;;;2.08;1.42;;;;;;;;;;4864242;29;20037;-77
2023/03/01 07:51:04;;;;;;;5.88;1.65;;;;;;;;;;4879806;29;20036;-78
2023/03/01 07:53:33;;;;;;;5.05;1.50;;;;;;;;;;4881731;29;20396;-77
2023/03/01 07:56:07;;;;;;;2.20;1.45;;;;;;;;;;4882340;29;20104;-77
2023/03/01 07:58:36;;;;;;;2.15;1.85;;;;;;;;;;4873681;29;20096;-77
2023/03/01 08:01:06;;;;;;;2.35;1.67;;;;;;;;;;4879219;29;20040;-77
2023/03/01 08:03:33;;;;;;;1.70;1.42;;;;;;;;;;4883018;29;20056;-78
2023/03/01 08:06:02;;;;;;;2.00;1.33;;;;;;;;;;4882198;29;20048;-76
2023/03/01 08:08:29;;;;;;;1.65;1.55;;;;;;;;;;4877850;29;20041;-77
2023/03/01 08:10:59;;;;;;;2.47;1.58;;;;;;;;;;4858175;29;20025;-77
2023/03/01 08:13:25;;;;;;;2.08;1.90;;;;;;;;;;4854750;29;20041;-76
2023/03/01 08:15:52;;;;;;;2.45;1.23;;;;;;;;;;4885346;29;20027;-77
2023/03/01 08:18:19;;;;;;;4.78;1.40;;;;;;;;;;4883063;29;20085;-76
2023/03/01 08:20:45;;;;;;;2.42;1.40;;;;;;;;;;4859574;29;20039;-77
2023/03/01 08:23:11;;;;;;;2.35;1.40;;;;;;;;;;4881060;29;20104;-76
2023/03/01 08:25:38;;;;;;;1.70;1.52;;;;;;;;;;4879214;29;20035;-77
2023/03/01 08:28:04;;;;;;;4.10;1.80;;;;;;;;;;4876100;29;20048;-77
2023/03/01 08:30:30;;;;;;;3.10;2.15;;;;;;;;;;4884499;29;20040;-77
2023/03/01 08:32:57;;;;;;;2.70;1.60;;;;;;;;;;4883332;29;20115;-77
2023/03/01 08:35:23;;;;;;;2.55;1.40;;;;;;;;;;4888004;29;20036;-77
2023/03/01 08:37:49;;;;;;;1.35;1.23;;;;;;;;;;4866794;29;20080;-77
2023/03/01 08:40:15;;;;;;;1.42;1.33;;;;;;;;;;4886187;29;20033;-78
2023/03/01 08:42:42;;;;;;;1.20;1.20;;;;;;;;;;4866085;29;20377;-78
2023/03/01 08:45:09;;;;;;;1.30;1.20;;;;;;;;;;4882615;29;20070;-78
2023/03/01 08:47:35;;;;;;;2.83;1.80;;;;;;;;;;4871983;29;20031;-79
2023/03/01 08:50:01;;;;;;;2.55;1.50;;;;;;;;;;4875449;29;20033;-78
2023/03/01 08:52:29;;;;;;;1.13;1.13;;;;;;;;;;4877195;29;20033;-81
2023/03/01 08:54:56;;;;;;;1.63;1.52;;;;;;;;;;4879792;29;20028;-77
2023/03/01 08:57:22;;;;;;;1.30;1.20;;;;;;;;;;4882074;29;20074;-78
2023/03/01 08:59:48;;;;;;;2.65;1.35;;;;;;;;;;4862219;29;20025;-79
2023/03/01 09:02:17;;;;;;;2.90;2.35;;;;;;;;;;4878121;29;20033;-80
2023/03/01 09:04:44;;;;;;;2.08;1.73;;;;;;;;;;4869379;29;20029;-78
2023/03/01 09:07:10;;;;;;;1.30;1.20;;;;;;;;;;4876687;29;20551;-77
2023/03/01 09:09:36;;;;;;;3.67;1.60;;;;;;;;;;4874053;29;20068;-77
2023/03/01 09:12:04;;;;;;;2.55;1.23;;;;;;;;;;4885076;29;20496;-78
2023/03/01 09:14:30;;;;;;;1.83;1.45;;;;;;;;;;4885901;29;20064;-79
2023/03/01 09:16:58;;;;;;;1.17;1.17;;;;;;;;;;4883158;29;20036;-77
2023/03/01 09:19:24;;;;;;;2.60;1.50;;;;;;;;;;4866822;29;20120;-77
2023/03/01 09:21:53;;;;;;;4.25;2.10;;;;;;;;;;4884318;29;20106;-80
2023/03/01 09:24:21;;;;;;;4.47;1.73;;;;;;;;;;4883630;29;20029;-78
2023/03/01 09:26:47;;;;;;;1.90;1.75;;;;;;;;;;4875733;29;20407;-77
2023/03/01 09:29:14;;;;;;;1.83;1.70;;;;;;;;;;4873238;29;20037;-77
2023/03/01 09:31:40;;;;;;;2.42;1.63;;;;;;;;;;4873292;29;20044;-77
2023/03/01 09:34:06;;;;;;;1.40;1.30;;;;;;;;;;4878757;29;20352;-77
2023/03/01 09:36:33;;;;;;;1.50;1.40;;;;;;;;;;4883346;29;21059;-79
2023/03/01 09:38:59;;;;;;;2.80;1.83;;;;;;;;;;4881099;29;20054;-78
2023/03/01 09:41:25;;;;;;;1.88;1.65;;;;;;;;;;4866917;29;20395;-77
2023/03/01 09:43:54;;;;;;;4.07;1.58;;;;;;;;;;4888347;29;20025;-77
2023/03/01 09:46:21;;;;;;;4.40;1.60;;;;;;;;;;4880055;29;20562;-78
2023/03/01 09:48:51;;;;;;;12.75;1.95;;;;;;;;;;4866245;29;20112;-76
2023/03/01 09:51:19;;;;;;;3.47;1.65;;;;;;;;;;4877816;29;20051;-76
2023/03/01 09:53:50;;;;;;;3.50;1.35;;;;;;;;;;4876192;29;20231;-77
2023/03/01 09:56:21;;;;;;;1.20;1.10;;;;;;;;;;4860762;29;20093;-77
2023/03/01 09:59:02;;;;;;;10.40;2.97;;;;;;;;;;4874223;29;20120;-77
2023/03/01 10:01:31;;;;;;;1.98;1.63;;;;;;;;;;4878151;29;20033;-79
2023/03/01 10:04:00;;;;;;;22.92;3.83;;;;;;;;;;4881372;29;20041;-78
2023/03/01 10:06:26;;;;;;;1.60;1.50;;;;;;;;;;4876217;29;20532;-76
2023/03/01 10:08:57;;;;;;;1.70;1.60;;;;;;;;;;4855730;29;20021;-76
2023/03/01 10:11:25;;;;;;;1.25;1.25;;;;;;;;;;4869968;29;20033;-75
2023/03/01 10:14:03;;;;;;;1.70;1.40;;;;;;;;;;4869846;29;20031;-77
2023/03/01 10:16:34;;;;;;;1.20;1.20;;;;;;;;;;4873453;29;20021;-77
2023/03/01 10:19:02;;;;;;;1.13;1.13;;;;;;;;;;4876330;29;20314;-80
2023/03/01 10:21:31;;;;;;;2.83;1.42;;;;;;;;;;4881413;29;20025;-78
2023/03/01 10:24:04;;;;;;;3.15;1.63;;;;;;;;;;4883981;29;20436;-80
2023/03/01 10:26:54;;;;;;;1.38;1.27;;;;;;;;;;4866695;29;20048;-77
2023/03/01 10:29:24;;;;;;;1.35;1.25;;;;;;;;;;4879934;29;20033;-77
2023/03/01 10:31:52;;;;;;;1.27;1.13;;;;;;;;;;4881640;29;20112;-77
2023/03/01 10:34:22;;;;;;;14.68;7.45;;;;;;;;;;4880537;29;20047;-77
2023/03/01 10:36:52;;;;;;;4.43;3.08;;;;;;;;;;4881768;29;20033;-78
2023/03/01 10:39:20;;;;;;;1.40;1.30;;;;;;;;;;4874810;29;20017;-78
2023/03/01 10:42:03;;;;;;;1.55;1.45;;;;;;;;;;4891731;29;20401;-78
2023/03/01 10:44:44;;;;;;;1.20;1.20;;;;;;;;;;4878312;29;20025;-79
2023/03/01 10:47:14;;;;;;;1.25;1.10;;;;;;;;;;4886287;29;20518;-78
2023/03/01 10:50:11;;;;;;;1.10;1.10;;;;;;;;;;4887539;29;20113;-77
2023/03/01 10:52:38;;;;;;;1.42;1.30;;;;;;;;;;4866765;29;20088;-77
2023/03/01 10:55:04;;;;;;;1.20;1.20;;;;;;;;;;4882068;29;20036;-80
2023/03/01 10:57:39;;;;;;;2.13;1.80;;;;;;;;;;4872054;29;20369;-78
2023/03/01 11:00:18;;;;;;;1.20;1.20;;;;;;;;;;4883436;29;20084;-77
2023/03/01 11:02:48;;;;;;;1.17;1.17;;;;;;;;;;4891761;29;20047;-78
2023/03/01 11:05:19;;;;;;;2.67;1.20;;;;;;;;;;4865964;29;20033;-77
2023/03/01 11:07:56;;;;;;;12.00;1.38;;;;;;;;;;4884096;29;20025;-78
2023/03/01 11:10:27;;;;;;;1.27;1.25;;;;;;;;;;4876687;29;20036;-77
2023/03/01 11:12:53;;;;;;;1.13;1.05;;;;;;;;;;4882017;29;20396;-78
2023/03/01 11:15:27;;;;;;;1.20;1.15;;;;;;;;;;4881925;29;20112;-78
2023/03/01 11:17:55;;;;;;;1.00;1.00;;;;;;;;;;4887400;29;20052;-79
2023/03/01 11:20:21;;;;;;;0.85;0.85;;;;;;;;;;4872645;29;20028;-78
2023/03/01 11:22:53;;;;;;;1.25;0.98;;;;;;;;;;4892774;29;20607;-77
2023/03/01 11:25:20;;;;;;;1.02;1.02;;;;;;;;;;4866437;29;20040;-79
2023/03/01 11:27:47;;;;;;;2.58;1.38;;;;;;;;;;4869459;29;20036;-77
2023/03/01 11:30:18;;;;;;;3.90;1.52;;;;;;;;;;4870920;29;20727;-77
2023/03/01 11:32:57;;;;;;;4.57;1.88;;;;;;;;;;4880510;29;20558;-78
2023/03/01 11:35:26;;;;;;;1.95;1.30;;;;;;;;;;4874112;29;20056;-78
2023/03/01 11:37:59;;;;;;;1.40;1.30;;;;;;;;;;4861295;29;20024;-78
2023/03/01 11:40:31;;;;;;;1.83;1.55;;;;;;;;;;4878590;29;20088;-78
2023/03/01 11:42:57;;;;;;;1.95;1.75;;;;;;;;;;4878044;29;20033;-78
2023/03/01 11:45:25;;;;;;;2.85;1.33;;;;;;;;;;4879622;29;20061;-77
2023/03/01 11:48:09;;;;;;;2.10;1.90;;;;;;;;;;4882815;29;20047;-78
2023/03/01 11:50:35;;;;;;;2.90;1.48;;;;;;;;;;4897447;29;20047;-77
2023/03/01 11:53:07;;;;;;;3.08;1.60;;;;;;;;;;4886472;29;20103;-78
2023/03/01 11:55:57;;;;;;;1.23;1.23;;;;;;;;;;4890968;29;20071;-78
2023/03/01 11:58:42;;;;;;;1.73;1.23;;;;;;;;;;4911220;29;20028;-77
2023/03/01 12:01:14;;;;;;;1.30;1.20;;;;;;;;;;4903746;29;20028;-76
2023/03/01 12:03:47;;;;;;;4.43;1.70;;;;;;;;;;4897462;29;20028;-76
2023/03/01 12:06:23;;;;;;;5.63;2.00;;;;;;;;;;4898054;29;20028;-77
2023/03/01 12:09:16;;;;;;;1.33;1.30;;;;;;;;;;4899275;29;20043;-77
2023/03/01 12:12:09;;;;;;;2.20;1.77;;;;;;;;;;4909428;29;20028;-79
2023/03/01 12:14:49;;;;;;;4.30;2.10;;;;;;;;;;4874424;29;20040;-76
2023/03/01 12:17:22;;;;;;;1.42;1.30;;;;;;;;;;4887516;29;20033;-78
2023/03/01 12:20:14;;;;;;;1.55;1.40;;;;;;;;;;4890336;29;20060;-78
2023/03/01 12:22:58;;;;;;;2.03;1.75;;;;;;;;;;4888118;29;20081;-78
2023/03/01 12:25:24;;;;;;;3.47;2.00;;;;;;;;;;4892007;29;20641;-78
2023/03/01 12:27:59;;;;;;;2.40;1.60;;;;;;;;;;4911216;29;20066;-79
2023/03/01 12:30:25;;;;;;;2.08;1.70;;;;;;;;;;4910554;29;20020;-80
2023/03/01 12:33:10;;;;;;;1.70;1.60;;;;;;;;;;4899478;29;20032;-78
2023/03/01 12:35:45;;;;;;;2.30;2.00;;;;;;;;;;4885659;29;20204;-79
2023/03/01 12:38:11;;;;;;;3.33;1.70;;;;;;;;;;4891954;29;20028;-77
2023/03/01 12:40:37;;;;;;;3.10;1.70;;;;;;;;;;4908872;29;20511;-80
2023/03/01 12:43:06;;;;;;;2.10;1.88;;;;;;;;;;4899040;29;20129;-81
2023/03/01 12:45:41;;;;;;;1.60;1.50;;;;;;;;;;4886597;29;20126;-82
2023/03/01 12:48:19;;;;;;;2.00;1.80;;;;;;;;;;4888574;29;20538;-80
2023/03/01 12:50:53;;;;;;;3.70;1.60;;;;;;;;;;4884445;29;20053;-80
2023/03/01 12:53:26;;;;;;;2.05;1.60;;;;;;;;;;4857130;29;20140;-80
2023/03/01 12:55:59;;;;;;;3.40;1.70;;;;;;;;;;4884385;29;20032;-81
2023/03/01 12:58:39;;;;;;;2.03;1.30;;;;;;;;;;4885789;29;20033;-80
2023/03/01 13:01:17;;;;;;;1.38;1.27;;;;;;;;;;4884302;29;20060;-78
2023/03/01 13:04:02;;;;;;;1.45;1.30;;;;;;;;;;4887014;29;20061;-79
2023/03/01 13:06:47;;;;;;;1.17;1.17;;;;;;;;;;4871846;29;20017;-77
2023/03/01 13:09:31;;;;;;;1.42;1.33;;;;;;;;;;4875225;29;20556;-79
2023/03/01 13:11:58;;;;;;;1.40;1.30;;;;;;;;;;4871811;29;20499;-77
2023/03/01 13:14:24;;;;;;;1.70;1.60;;;;;;;;;;4894206;29;20029;-78
2023/03/01 13:16:51;;;;;;;4.47;3.17;;;;;;;;;;4890134;29;20025;-79
2023/03/01 13:19:18;;;;;;;2.90;2.08;;;;;;;;;;4885814;29;20037;-79
2023/03/01 13:21:46;;;;;;;13.15;8.07;;;;;;;;;;4885306;29;20033;-79
2023/03/01 13:24:30;;;;;;;2.63;1.90;;;;;;;;;;4880521;29;20020;-78
2023/03/01 13:27:09;;;;;;;2.70;1.50;;;;;;;;;;4879274;29;20377;-78
2023/03/01 13:29:46;;;;;;;1.60;1.50;;;;;;;;;;4883167;29;20069;-80
2023/03/01 13:32:39;;;;;;;2.97;1.50;;;;;;;;;;4879987;29;20025;-79
2023/03/01 13:35:11;;;;;;;2.17;1.50;;;;;;;;;;4883702;29;20377;-78
2023/03/01 13:37:38;;;;;;;3.03;1.52;;;;;;;;;;4882915;29;20084;-81
2023/03/01 13:40:22;;;;;;;5.50;1.80;;;;;;;;;;4884441;29;20044;-79
2023/03/01 13:42:48;;;;;;;1.95;1.48;;;;;;;;;;4883619;29;20423;-79
2023/03/01 13:45:20;;;;;;;2.65;2.03;;;;;;;;;;4891536;29;20731;-80
2023/03/01 13:47:49;;;;;;;2.35;1.55;;;;;;;;;;4890637;29;20067;-78
2023/03/01 13:50:24;;;;;;;2.47;1.70;;;;;;;;;;4885617;29;20120;-78
2023/03/01 13:53:16;;;;;;;3.33;1.55;;;;;;;;;;4881827;29;20040;-78
2023/03/01 13:55:44;;;;;;;1.52;1.40;;;;;;;;;;4884972;29;20048;-77
2023/03/01 13:58:22;;;;;;;4.63;1.77;;;;;;;;;;4866913;29;20033;-79
2023/03/01 14:00:55;;;;;;;3.25;1.80;;;;;;;;;;4874029;29;20089;-79
2023/03/01 14:03:21;;;;;;;2.63;1.80;;;;;;;;;;4866884;29;20025;-78
2023/03/01 14:06:00;;;;;;;2.13;1.92;;;;;;;;;;4881410;29;20033;-77
2023/03/01 14:08:28;;;;;;;4.25;2.10;;;;;;;;;;4884343;29;20029;-79
2023/03/01 14:11:13;;;;;;;2.47;1.90;;;;;;;;;;4879008;29;20033;-78
2023/03/01 14:13:58;;;;;;;3.75;1.52;;;;;;;;;;4882707;29;20101;-78
2023/03/01 14:16:27;;;;;;;4.63;3.13;;;;;;;;;;4890940;29;20067;-79
2023/03/01 14:19:08;;;;;;;5.97;2.53;;;;;;;;;;4884587;29;20335;-78
2023/03/01 14:21:36;;;;;;;2.00;1.85;;;;;;;;;;4872051;29;20044;-78
2023/03/01 14:24:02;;;;;;;3.80;1.67;;;;;;;;;;4882294;29;20069;-77
2023/03/01 14:26:28;;;;;;;10.73;3.75;;;;;;;;;;4884492;29;20053;-78
2023/03/01 14:28:55;;;;;;;5.47;3.05;;;;;;;;;;4880432;29;20356;-78
2023/03/01 14:31:38;;;;;;;1.98;1.70;;;;;;;;;;4890854;29;20104;-78
2023/03/01 14:34:05;;;;;;;2.90;1.90;;;;;;;;;;4894846;29;20033;-78
2023/03/01 14:36:33;;;;;;;5.18;2.45;;;;;;;;;;4891242;29;20033;-78
2023/03/01 14:39:04;;;;;;;3.95;2.40;;;;;;;;;;4873469;29;20095;-78
2023/03/01 14:41:31;;;;;;;14.93;6.55;;;;;;;;;;4887879;29;20036;-76
2023/03/01 14:43:59;;;;;;;7.93;3.30;;;;;;;;;;4888224;29;20388;-77
2023/03/01 14:46:25;;;;;;;3.50;2.40;;;;;;;;;;4889989;29;20033;-77
2023/03/01 14:48:52;;;;;;;3.70;1.88;;;;;;;;;;4891146;29;20502;-79
2023/03/01 14:51:18;;;;;;;3.90;1.90;;;;;;;;;;4875271;29;20069;-79
2023/03/01 14:53:44;;;;;;;3.17;1.70;;;;;;;;;;4892120;29;20044;-79
2023/03/01 14:56:14;;;;;;;1.65;1.55;;;;;;;;;;4891270;29;20052;-79